sensor_id;sensor_type;location;lat;lon;timestamp;P1;durP1;ratioP1;P2;durP2;ratioP2
2019;SDS011;1014;51.960;8.542;2022-12-13T00:00:03;36.05;;;32.72;;
2019;SDS011;1014;51.960;8.542;2022-12-13T00:02:34;37.55;;;33.83;;
2019;SDS011;1014;51.960;8.542;2022-12-13T00:05:01;39.13;;;35.20;;
2019;SDS011;1014;51.960;8.542;2022-12-13T00:07:28;38.70;;;33.88;;
2019;SDS011;1014;51.960;8.542;2022-12-13T00:09:57;44.03;;;35.30;;
2019;SDS011;1014;51.960;8.542;2022-12-13T00:12:24;38.63;;;34.78;;
2019;SDS011;1014;51.960;8.542;2022-12-13T00:14:51;35.90;;;32.42;;
2019;SDS011;1014;51.960;8.542;2022-12-13T00:17:18;38.53;;;34.42;;
2019;SDS011;1014;51.960;8.542;2022-12-13T00:19:46;40.13;;;35.30;;
2019;SDS011;1014;51.960;8.542;2022-12-13T00:22:13;40.67;;;35.65;;
2019;SDS011;1014;51.960;8.542;2022-12-13T00:24:40;41.78;;;35.15;;
2019;SDS011;1014;51.960;8.542;2022-12-13T00:27:09;41.22;;;36.85;;
2019;SDS011;1014;51.960;8.542;2022-12-13T00:29:36;39.80;;;35.58;;
2019;SDS011;1014;51.960;8.542;2022-12-13T00:32:03;39.53;;;35.53;;
2019;SDS011;1014;51.960;8.542;2022-12-13T00:34:30;38.85;;;34.45;;
2019;SDS011;1014;51.960;8.542;2022-12-13T00:36:57;39.55;;;35.03;;
2019;SDS011;1014;51.960;8.542;2022-12-13T00:39:25;35.50;;;32.00;;
2019;SDS011;1014;51.960;8.542;2022-12-13T00:41:52;39.38;;;35.42;;
2019;SDS011;1014;51.960;8.542;2022-12-13T00:44:20;38.78;;;34.72;;
2019;SDS011;1014;51.960;8.542;2022-12-13T00:46:48;35.83;;;32.22;;
2019;SDS011;1014;51.960;8.542;2022-12-13T00:49:16;36.95;;;32.35;;
2019;SDS011;1014;51.960;8.542;2022-12-13T00:51:43;43.13;;;34.28;;
2019;SDS011;1014;51.960;8.542;2022-12-13T00:54:12;40.13;;;35.80;;
2019;SDS011;1014;51.960;8.542;2022-12-13T00:56:39;36.42;;;32.72;;
2019;SDS011;1014;51.960;8.542;2022-12-13T00:59:06;36.40;;;33.05;;
2019;SDS011;1014;51.960;8.542;2022-12-13T01:01:35;38.35;;;34.40;;
2019;SDS011;1014;51.960;8.542;2022-12-13T01:04:03;41.88;;;35.85;;
2019;SDS011;1014;51.960;8.542;2022-12-13T01:06:32;39.63;;;35.20;;
2019;SDS011;1014;51.960;8.542;2022-12-13T01:09:00;40.08;;;34.63;;
2019;SDS011;1014;51.960;8.542;2022-12-13T01:11:27;41.45;;;36.75;;
2019;SDS011;1014;51.960;8.542;2022-12-13T01:13:55;44.58;;;33.72;;
2019;SDS011;1014;51.960;8.542;2022-12-13T01:16:22;39.10;;;35.15;;
2019;SDS011;1014;51.960;8.542;2022-12-13T01:18:50;38.33;;;34.17;;
2019;SDS011;1014;51.960;8.542;2022-12-13T01:21:18;40.80;;;36.42;;
2019;SDS011;1014;51.960;8.542;2022-12-13T01:23:45;39.38;;;34.85;;
2019;SDS011;1014;51.960;8.542;2022-12-13T01:26:13;39.15;;;35.15;;
2019;SDS011;1014;51.960;8.542;2022-12-13T01:28:40;37.13;;;33.05;;
2019;SDS011;1014;51.960;8.542;2022-12-13T01:31:08;39.40;;;35.17;;
2019;SDS011;1014;51.960;8.542;2022-12-13T01:33:36;37.65;;;33.55;;
2019;SDS011;1014;51.960;8.542;2022-12-13T01:36:06;40.95;;;36.95;;
2019;SDS011;1014;51.960;8.542;2022-12-13T01:38:33;37.67;;;33.60;;
2019;SDS011;1014;51.960;8.542;2022-12-13T01:41:01;36.40;;;32.72;;
2019;SDS011;1014;51.960;8.542;2022-12-13T01:43:30;41.38;;;35.17;;
2019;SDS011;1014;51.960;8.542;2022-12-13T01:46:15;38.85;;;34.30;;
2019;SDS011;1014;51.960;8.542;2022-12-13T01:48:43;39.03;;;35.15;;
2019;SDS011;1014;51.960;8.542;2022-12-13T01:51:14;38.47;;;34.40;;
2019;SDS011;1014;51.960;8.542;2022-12-13T01:53:43;38.95;;;34.80;;
2019;SDS011;1014;51.960;8.542;2022-12-13T01:56:11;39.28;;;34.92;;
2019;SDS011;1014;51.960;8.542;2022-12-13T01:58:40;37.22;;;33.20;;
2019;SDS011;1014;51.960;8.542;2022-12-13T02:01:07;37.28;;;33.58;;
2019;SDS011;1014;51.960;8.542;2022-12-13T02:03:34;38.05;;;34.15;;
2019;SDS011;1014;51.960;8.542;2022-12-13T02:06:02;42.13;;;36.60;;
2019;SDS011;1014;51.960;8.542;2022-12-13T02:08:32;37.33;;;33.45;;
2019;SDS011;1014;51.960;8.542;2022-12-13T02:11:00;39.30;;;35.10;;
2019;SDS011;1014;51.960;8.542;2022-12-13T02:13:28;37.88;;;34.28;;
2019;SDS011;1014;51.960;8.542;2022-12-13T02:15:56;36.78;;;32.97;;
2019;SDS011;1014;51.960;8.542;2022-12-13T02:18:34;36.85;;;33.20;;
2019;SDS011;1014;51.960;8.542;2022-12-13T02:21:17;38.30;;;34.35;;
2019;SDS011;1014;51.960;8.542;2022-12-13T02:24:10;38.05;;;34.10;;
2019;SDS011;1014;51.960;8.542;2022-12-13T02:26:46;37.10;;;33.20;;
2019;SDS011;1014;51.960;8.542;2022-12-13T02:29:37;38.20;;;34.17;;
2019;SDS011;1014;51.960;8.542;2022-12-13T02:32:14;39.03;;;34.95;;
2019;SDS011;1014;51.960;8.542;2022-12-13T02:34:43;38.17;;;34.15;;
2019;SDS011;1014;51.960;8.542;2022-12-13T02:37:14;36.35;;;32.88;;
2019;SDS011;1014;51.960;8.542;2022-12-13T02:39:46;40.20;;;35.97;;
2019;SDS011;1014;51.960;8.542;2022-12-13T02:42:15;37.85;;;33.85;;
2019;SDS011;1014;51.960;8.542;2022-12-13T02:44:45;37.92;;;33.92;;
2019;SDS011;1014;51.960;8.542;2022-12-13T02:47:18;37.30;;;33.85;;
2019;SDS011;1014;51.960;8.542;2022-12-13T02:49:47;39.85;;;35.97;;
2019;SDS011;1014;51.960;8.542;2022-12-13T02:52:16;39.30;;;35.60;;
2019;SDS011;1014;51.960;8.542;2022-12-13T02:54:44;39.60;;;35.50;;
2019;SDS011;1014;51.960;8.542;2022-12-13T02:57:25;37.58;;;33.85;;
2019;SDS011;1014;51.960;8.542;2022-12-13T02:59:53;38.10;;;34.15;;
2019;SDS011;1014;51.960;8.542;2022-12-13T03:02:23;39.90;;;35.75;;
2019;SDS011;1014;51.960;8.542;2022-12-13T03:04:52;37.72;;;33.97;;
2019;SDS011;1014;51.960;8.542;2022-12-13T03:07:42;37.80;;;34.20;;
2019;SDS011;1014;51.960;8.542;2022-12-13T03:10:14;36.58;;;33.17;;
2019;SDS011;1014;51.960;8.542;2022-12-13T03:12:44;35.65;;;31.83;;
2019;SDS011;1014;51.960;8.542;2022-12-13T03:15:32;39.13;;;35.25;;
2019;SDS011;1014;51.960;8.542;2022-12-13T03:18:06;37.90;;;34.40;;
2019;SDS011;1014;51.960;8.542;2022-12-13T03:20:43;39.78;;;35.58;;
2019;SDS011;1014;51.960;8.542;2022-12-13T03:23:10;38.50;;;34.83;;
2019;SDS011;1014;51.960;8.542;2022-12-13T03:25:37;36.80;;;32.92;;
2019;SDS011;1014;51.960;8.542;2022-12-13T03:28:05;37.05;;;33.25;;
2019;SDS011;1014;51.960;8.542;2022-12-13T03:30:32;39.20;;;35.38;;
2019;SDS011;1014;51.960;8.542;2022-12-13T03:32:59;38.75;;;34.80;;
2019;SDS011;1014;51.960;8.542;2022-12-13T03:35:28;38.78;;;34.67;;
2019;SDS011;1014;51.960;8.542;2022-12-13T03:37:56;36.75;;;32.83;;
2019;SDS011;1014;51.960;8.542;2022-12-13T03:40:23;36.15;;;32.33;;
2019;SDS011;1014;51.960;8.542;2022-12-13T03:42:51;36.92;;;33.22;;
2019;SDS011;1014;51.960;8.542;2022-12-13T03:45:19;36.30;;;32.70;;
2019;SDS011;1014;51.960;8.542;2022-12-13T03:47:46;35.83;;;32.40;;
2019;SDS011;1014;51.960;8.542;2022-12-13T03:50:13;35.03;;;31.25;;
2019;SDS011;1014;51.960;8.542;2022-12-13T03:52:42;35.58;;;32.17;;
2019;SDS011;1014;51.960;8.542;2022-12-13T03:55:11;33.35;;;29.95;;
2019;SDS011;1014;51.960;8.542;2022-12-13T03:57:38;35.88;;;32.33;;
2019;SDS011;1014;51.960;8.542;2022-12-13T04:00:07;36.90;;;33.08;;
2019;SDS011;1014;51.960;8.542;2022-12-13T04:02:34;36.33;;;32.70;;
2019;SDS011;1014;51.960;8.542;2022-12-13T04:05:01;36.53;;;32.63;;
2019;SDS011;1014;51.960;8.542;2022-12-13T04:07:28;36.15;;;32.47;;
2019;SDS011;1014;51.960;8.542;2022-12-13T04:09:57;34.65;;;31.55;;
2019;SDS011;1014;51.960;8.542;2022-12-13T04:12:24;36.72;;;33.10;;
2019;SDS011;1014;51.960;8.542;2022-12-13T04:15:09;37.08;;;32.63;;
2019;SDS011;1014;51.960;8.542;2022-12-13T04:17:36;34.60;;;31.00;;
2019;SDS011;1014;51.960;8.542;2022-12-13T04:20:03;36.95;;;33.25;;
2019;SDS011;1014;51.960;8.542;2022-12-13T04:22:30;34.33;;;31.02;;
2019;SDS011;1014;51.960;8.542;2022-12-13T04:24:59;38.33;;;32.80;;
2019;SDS011;1014;51.960;8.542;2022-12-13T04:27:26;34.42;;;30.92;;
2019;SDS011;1014;51.960;8.542;2022-12-13T04:29:53;34.10;;;30.55;;
2019;SDS011;1014;51.960;8.542;2022-12-13T04:32:20;35.03;;;31.48;;
2019;SDS011;1014;51.960;8.542;2022-12-13T04:34:47;35.47;;;31.33;;
2019;SDS011;1014;51.960;8.542;2022-12-13T04:37:14;36.45;;;32.58;;
2019;SDS011;1014;51.960;8.542;2022-12-13T04:39:42;36.60;;;32.78;;
2019;SDS011;1014;51.960;8.542;2022-12-13T04:42:10;34.25;;;30.65;;
2019;SDS011;1014;51.960;8.542;2022-12-13T04:44:37;35.28;;;32.05;;
2019;SDS011;1014;51.960;8.542;2022-12-13T04:47:04;34.47;;;31.05;;
2019;SDS011;1014;51.960;8.542;2022-12-13T04:49:32;33.70;;;30.52;;
2019;SDS011;1014;51.960;8.542;2022-12-13T04:51:59;34.40;;;31.23;;
2019;SDS011;1014;51.960;8.542;2022-12-13T04:54:27;36.38;;;32.40;;
2019;SDS011;1014;51.960;8.542;2022-12-13T04:56:54;35.55;;;31.85;;
2019;SDS011;1014;51.960;8.542;2022-12-13T04:59:22;37.03;;;33.40;;
2019;SDS011;1014;51.960;8.542;2022-12-13T05:01:49;35.03;;;31.35;;
2019;SDS011;1014;51.960;8.542;2022-12-13T05:04:16;36.22;;;32.50;;
2019;SDS011;1014;51.960;8.542;2022-12-13T05:06:43;35.40;;;31.63;;
2019;SDS011;1014;51.960;8.542;2022-12-13T05:09:10;35.65;;;32.10;;
2019;SDS011;1014;51.960;8.542;2022-12-13T05:11:37;37.33;;;33.53;;
2019;SDS011;1014;51.960;8.542;2022-12-13T05:14:05;32.92;;;29.42;;
2019;SDS011;1014;51.960;8.542;2022-12-13T05:16:33;33.78;;;30.33;;
2019;SDS011;1014;51.960;8.542;2022-12-13T05:19:00;36.38;;;32.47;;
2019;SDS011;1014;51.960;8.542;2022-12-13T05:21:27;37.05;;;33.30;;
2019;SDS011;1014;51.960;8.542;2022-12-13T05:23:54;34.40;;;30.90;;
2019;SDS011;1014;51.960;8.542;2022-12-13T05:26:21;35.90;;;32.20;;
2019;SDS011;1014;51.960;8.542;2022-12-13T05:28:49;34.30;;;30.90;;
2019;SDS011;1014;51.960;8.542;2022-12-13T05:31:16;34.88;;;31.63;;
2019;SDS011;1014;51.960;8.542;2022-12-13T05:33:44;34.53;;;30.95;;
2019;SDS011;1014;51.960;8.542;2022-12-13T05:36:13;35.20;;;30.73;;
2019;SDS011;1014;51.960;8.542;2022-12-13T05:38:40;32.53;;;29.38;;
2019;SDS011;1014;51.960;8.542;2022-12-13T05:41:07;33.90;;;30.70;;
2019;SDS011;1014;51.960;8.542;2022-12-13T05:43:35;33.67;;;30.38;;
2019;SDS011;1014;51.960;8.542;2022-12-13T05:46:03;33.38;;;30.05;;
2019;SDS011;1014;51.960;8.542;2022-12-13T05:48:30;35.90;;;32.13;;
2019;SDS011;1014;51.960;8.542;2022-12-13T05:50:58;32.53;;;29.40;;
2019;SDS011;1014;51.960;8.542;2022-12-13T05:53:25;35.55;;;32.10;;
2019;SDS011;1014;51.960;8.542;2022-12-13T05:55:52;33.03;;;30.00;;
2019;SDS011;1014;51.960;8.542;2022-12-13T05:58:20;36.63;;;31.48;;
2019;SDS011;1014;51.960;8.542;2022-12-13T06:00:47;35.75;;;31.88;;
2019;SDS011;1014;51.960;8.542;2022-12-13T06:03:14;39.00;;;32.47;;
2019;SDS011;1014;51.960;8.542;2022-12-13T06:05:41;32.55;;;29.55;;
2019;SDS011;1014;51.960;8.542;2022-12-13T06:08:10;32.33;;;29.35;;
2019;SDS011;1014;51.960;8.542;2022-12-13T06:10:37;33.38;;;30.02;;
2019;SDS011;1014;51.960;8.542;2022-12-13T06:13:04;33.92;;;29.80;;
2019;SDS011;1014;51.960;8.542;2022-12-13T06:15:31;34.58;;;31.10;;
2019;SDS011;1014;51.960;8.542;2022-12-13T06:17:59;33.05;;;29.75;;
2019;SDS011;1014;51.960;8.542;2022-12-13T06:20:26;40.20;;;31.52;;
2019;SDS011;1014;51.960;8.542;2022-12-13T06:22:53;34.25;;;30.73;;
2019;SDS011;1014;51.960;8.542;2022-12-13T06:25:21;33.38;;;29.98;;
2019;SDS011;1014;51.960;8.542;2022-12-13T06:27:48;34.42;;;30.90;;
2019;SDS011;1014;51.960;8.542;2022-12-13T06:30:15;32.92;;;30.00;;
2019;SDS011;1014;51.960;8.542;2022-12-13T06:32:46;34.95;;;31.42;;
2019;SDS011;1014;51.960;8.542;2022-12-13T06:35:13;35.60;;;32.05;;
2019;SDS011;1014;51.960;8.542;2022-12-13T06:37:41;32.83;;;29.73;;
2019;SDS011;1014;51.960;8.542;2022-12-13T06:40:08;34.30;;;30.92;;
2019;SDS011;1014;51.960;8.542;2022-12-13T06:42:37;36.03;;;32.28;;
2019;SDS011;1014;51.960;8.542;2022-12-13T06:45:04;35.60;;;32.10;;
2019;SDS011;1014;51.960;8.542;2022-12-13T06:47:31;36.13;;;32.40;;
2019;SDS011;1014;51.960;8.542;2022-12-13T06:49:58;33.97;;;30.48;;
2019;SDS011;1014;51.960;8.542;2022-12-13T06:52:25;36.35;;;32.05;;
2019;SDS011;1014;51.960;8.542;2022-12-13T06:54:52;34.10;;;30.88;;
2019;SDS011;1014;51.960;8.542;2022-12-13T06:57:20;34.63;;;30.98;;
2019;SDS011;1014;51.960;8.542;2022-12-13T06:59:48;34.92;;;31.33;;
2019;SDS011;1014;51.960;8.542;2022-12-13T07:02:15;38.40;;;34.58;;
2019;SDS011;1014;51.960;8.542;2022-12-13T07:04:42;35.15;;;31.38;;
2019;SDS011;1014;51.960;8.542;2022-12-13T07:07:10;33.22;;;29.77;;
2019;SDS011;1014;51.960;8.542;2022-12-13T07:09:37;35.40;;;32.03;;
2019;SDS011;1014;51.960;8.542;2022-12-13T07:12:04;34.13;;;30.60;;
2019;SDS011;1014;51.960;8.542;2022-12-13T07:14:32;37.00;;;32.03;;
2019;SDS011;1014;51.960;8.542;2022-12-13T07:17:00;34.38;;;30.85;;
2019;SDS011;1014;51.960;8.542;2022-12-13T07:19:27;36.42;;;32.47;;
2019;SDS011;1014;51.960;8.542;2022-12-13T07:21:54;33.40;;;30.13;;
2019;SDS011;1014;51.960;8.542;2022-12-13T07:24:21;34.92;;;31.23;;
2019;SDS011;1014;51.960;8.542;2022-12-13T07:26:48;35.22;;;30.45;;
2019;SDS011;1014;51.960;8.542;2022-12-13T07:29:15;34.55;;;30.75;;
2019;SDS011;1014;51.960;8.542;2022-12-13T07:31:43;42.22;;;35.30;;
2019;SDS011;1014;51.960;8.542;2022-12-13T07:34:11;36.53;;;30.55;;
2019;SDS011;1014;51.960;8.542;2022-12-13T07:36:38;34.97;;;31.45;;
2019;SDS011;1014;51.960;8.542;2022-12-13T07:39:05;36.35;;;31.50;;
2019;SDS011;1014;51.960;8.542;2022-12-13T07:41:33;34.80;;;30.50;;
2019;SDS011;1014;51.960;8.542;2022-12-13T07:44:00;35.83;;;31.35;;
2019;SDS011;1014;51.960;8.542;2022-12-13T07:46:27;36.20;;;32.47;;
2019;SDS011;1014;51.960;8.542;2022-12-13T07:48:54;36.40;;;32.78;;
2019;SDS011;1014;51.960;8.542;2022-12-13T07:51:22;35.10;;;31.60;;
2019;SDS011;1014;51.960;8.542;2022-12-13T07:53:51;34.17;;;30.75;;
2019;SDS011;1014;51.960;8.542;2022-12-13T07:56:18;35.92;;;32.20;;
2019;SDS011;1014;51.960;8.542;2022-12-13T07:58:45;35.47;;;31.83;;
2019;SDS011;1014;51.960;8.542;2022-12-13T08:01:12;33.60;;;30.02;;
2019;SDS011;1014;51.960;8.542;2022-12-13T08:03:39;34.38;;;31.08;;
2019;SDS011;1014;51.960;8.542;2022-12-13T08:06:07;33.08;;;29.88;;
2019;SDS011;1014;51.960;8.542;2022-12-13T08:08:36;33.92;;;30.60;;
2019;SDS011;1014;51.960;8.542;2022-12-13T08:11:05;34.72;;;31.05;;
2019;SDS011;1014;51.960;8.542;2022-12-13T08:13:32;35.15;;;31.55;;
2019;SDS011;1014;51.960;8.542;2022-12-13T08:16:00;35.42;;;31.75;;
2019;SDS011;1014;51.960;8.542;2022-12-13T08:18:28;37.03;;;32.83;;
2019;SDS011;1014;51.960;8.542;2022-12-13T08:20:58;36.88;;;32.83;;
2019;SDS011;1014;51.960;8.542;2022-12-13T08:23:25;40.70;;;35.58;;
2019;SDS011;1014;51.960;8.542;2022-12-13T08:25:54;35.47;;;32.00;;
2019;SDS011;1014;51.960;8.542;2022-12-13T08:28:22;37.63;;;33.72;;
2019;SDS011;1014;51.960;8.542;2022-12-13T08:30:49;36.65;;;33.25;;
2019;SDS011;1014;51.960;8.542;2022-12-13T08:33:17;35.28;;;31.65;;
2019;SDS011;1014;51.960;8.542;2022-12-13T08:35:45;36.10;;;32.38;;
2019;SDS011;1014;51.960;8.542;2022-12-13T08:38:13;36.65;;;31.40;;
2019;SDS011;1014;51.960;8.542;2022-12-13T08:40:40;36.50;;;32.90;;
2019;SDS011;1014;51.960;8.542;2022-12-13T08:43:08;36.28;;;32.72;;
2019;SDS011;1014;51.960;8.542;2022-12-13T08:45:35;40.55;;;36.13;;
2019;SDS011;1014;51.960;8.542;2022-12-13T08:48:03;38.67;;;34.70;;
2019;SDS011;1014;51.960;8.542;2022-12-13T08:50:30;37.97;;;34.08;;
2019;SDS011;1014;51.960;8.542;2022-12-13T08:52:57;37.05;;;33.60;;
2019;SDS011;1014;51.960;8.542;2022-12-13T08:55:24;40.53;;;32.90;;
2019;SDS011;1014;51.960;8.542;2022-12-13T08:57:51;34.25;;;30.95;;
2019;SDS011;1014;51.960;8.542;2022-12-13T09:00:19;34.38;;;30.67;;
2019;SDS011;1014;51.960;8.542;2022-12-13T09:02:46;34.63;;;30.98;;
2019;SDS011;1014;51.960;8.542;2022-12-13T09:05:14;32.55;;;29.42;;
2019;SDS011;1014;51.960;8.542;2022-12-13T09:07:41;38.20;;;32.17;;
2019;SDS011;1014;51.960;8.542;2022-12-13T09:10:09;42.88;;;34.03;;
2019;SDS011;1014;51.960;8.542;2022-12-13T09:12:39;51.78;;;37.75;;
2019;SDS011;1014;51.960;8.542;2022-12-13T09:15:06;44.75;;;36.88;;
2019;SDS011;1014;51.960;8.542;2022-12-13T09:17:35;46.03;;;36.50;;
2019;SDS011;1014;51.960;8.542;2022-12-13T09:20:02;45.88;;;36.42;;
2019;SDS011;1014;51.960;8.542;2022-12-13T09:22:29;43.67;;;35.40;;
2019;SDS011;1014;51.960;8.542;2022-12-13T09:24:56;42.45;;;35.70;;
2019;SDS011;1014;51.960;8.542;2022-12-13T09:27:23;52.28;;;37.05;;
2019;SDS011;1014;51.960;8.542;2022-12-13T09:29:50;40.17;;;31.40;;
2019;SDS011;1014;51.960;8.542;2022-12-13T09:32:17;37.05;;;32.72;;
2019;SDS011;1014;51.960;8.542;2022-12-13T09:34:47;28.88;;;26.48;;
2019;SDS011;1014;51.960;8.542;2022-12-13T09:37:14;34.45;;;30.95;;
2019;SDS011;1014;51.960;8.542;2022-12-13T09:39:41;31.98;;;29.13;;
2019;SDS011;1014;51.960;8.542;2022-12-13T09:42:09;34.70;;;31.40;;
2019;SDS011;1014;51.960;8.542;2022-12-13T09:44:43;35.70;;;32.00;;
2019;SDS011;1014;51.960;8.542;2022-12-13T09:47:14;34.47;;;30.98;;
2019;SDS011;1014;51.960;8.542;2022-12-13T09:49:47;33.33;;;30.13;;
2019;SDS011;1014;51.960;8.542;2022-12-13T09:52:15;33.42;;;29.98;;
2019;SDS011;1014;51.960;8.542;2022-12-13T09:54:43;32.38;;;29.58;;
2019;SDS011;1014;51.960;8.542;2022-12-13T09:57:13;30.33;;;27.73;;
2019;SDS011;1014;51.960;8.542;2022-12-13T09:59:41;33.55;;;30.08;;
2019;SDS011;1014;51.960;8.542;2022-12-13T10:02:13;30.83;;;27.98;;
2019;SDS011;1014;51.960;8.542;2022-12-13T10:04:41;31.83;;;28.92;;
2019;SDS011;1014;51.960;8.542;2022-12-13T10:07:10;30.60;;;27.85;;
2019;SDS011;1014;51.960;8.542;2022-12-13T10:09:41;32.47;;;29.20;;
2019;SDS011;1014;51.960;8.542;2022-12-13T10:12:08;30.77;;;27.92;;
2019;SDS011;1014;51.960;8.542;2022-12-13T10:14:40;32.20;;;28.80;;
2019;SDS011;1014;51.960;8.542;2022-12-13T10:17:10;31.38;;;28.33;;
2019;SDS011;1014;51.960;8.542;2022-12-13T10:19:40;33.00;;;29.65;;
2019;SDS011;1014;51.960;8.542;2022-12-13T10:22:10;33.10;;;30.00;;
2019;SDS011;1014;51.960;8.542;2022-12-13T10:24:48;32.55;;;29.38;;
2019;SDS011;1014;51.960;8.542;2022-12-13T10:27:16;30.42;;;27.65;;
2019;SDS011;1014;51.960;8.542;2022-12-13T10:29:58;32.13;;;29.27;;
2019;SDS011;1014;51.960;8.542;2022-12-13T10:32:25;31.85;;;28.83;;
2019;SDS011;1014;51.960;8.542;2022-12-13T10:34:53;32.47;;;29.63;;
2019;SDS011;1014;51.960;8.542;2022-12-13T10:37:25;32.00;;;28.95;;
2019;SDS011;1014;51.960;8.542;2022-12-13T10:39:54;35.97;;;30.33;;
2019;SDS011;1014;51.960;8.542;2022-12-13T10:42:21;31.48;;;28.23;;
2019;SDS011;1014;51.960;8.542;2022-12-13T10:44:48;30.85;;;27.95;;
2019;SDS011;1014;51.960;8.542;2022-12-13T10:47:16;30.02;;;27.30;;
2019;SDS011;1014;51.960;8.542;2022-12-13T10:49:48;31.80;;;28.80;;
2019;SDS011;1014;51.960;8.542;2022-12-13T10:52:22;31.15;;;28.60;;
2019;SDS011;1014;51.960;8.542;2022-12-13T10:54:50;31.00;;;28.30;;
2019;SDS011;1014;51.960;8.542;2022-12-13T10:57:19;30.63;;;28.20;;
2019;SDS011;1014;51.960;8.542;2022-12-13T10:59:46;31.02;;;28.17;;
2019;SDS011;1014;51.960;8.542;2022-12-13T11:02:27;32.30;;;29.27;;
2019;SDS011;1014;51.960;8.542;2022-12-13T11:04:55;44.85;;;31.00;;
2019;SDS011;1014;51.960;8.542;2022-12-13T11:07:23;32.60;;;29.65;;
2019;SDS011;1014;51.960;8.542;2022-12-13T11:09:51;32.60;;;29.65;;
2019;SDS011;1014;51.960;8.542;2022-12-13T11:12:19;30.38;;;27.58;;
2019;SDS011;1014;51.960;8.542;2022-12-13T11:14:48;29.35;;;26.75;;
2019;SDS011;1014;51.960;8.542;2022-12-13T11:17:20;41.05;;;36.42;;
2019;SDS011;1014;51.960;8.542;2022-12-13T11:19:49;31.85;;;28.95;;
2019;SDS011;1014;51.960;8.542;2022-12-13T11:22:18;28.00;;;25.50;;
2019;SDS011;1014;51.960;8.542;2022-12-13T11:24:48;28.52;;;26.23;;
2019;SDS011;1014;51.960;8.542;2022-12-13T11:27:27;28.73;;;26.10;;
2019;SDS011;1014;51.960;8.542;2022-12-13T11:30:00;28.80;;;26.33;;
2019;SDS011;1014;51.960;8.542;2022-12-13T11:32:33;29.48;;;27.02;;
2019;SDS011;1014;51.960;8.542;2022-12-13T11:35:04;29.23;;;26.63;;
2019;SDS011;1014;51.960;8.542;2022-12-13T11:37:38;29.63;;;26.92;;
2019;SDS011;1014;51.960;8.542;2022-12-13T11:40:10;30.42;;;27.48;;
2019;SDS011;1014;51.960;8.542;2022-12-13T11:42:42;31.10;;;28.10;;
2019;SDS011;1014;51.960;8.542;2022-12-13T11:45:11;30.98;;;28.33;;
2019;SDS011;1014;51.960;8.542;2022-12-13T11:47:41;27.80;;;25.30;;
2019;SDS011;1014;51.960;8.542;2022-12-13T11:50:14;29.65;;;26.90;;
2019;SDS011;1014;51.960;8.542;2022-12-13T11:52:43;28.58;;;26.15;;
2019;SDS011;1014;51.960;8.542;2022-12-13T11:55:13;28.17;;;25.67;;
2019;SDS011;1014;51.960;8.542;2022-12-13T11:57:45;32.00;;;29.35;;
2019;SDS011;1014;51.960;8.542;2022-12-13T12:00:26;29.33;;;26.73;;
2019;SDS011;1014;51.960;8.542;2022-12-13T12:02:57;31.35;;;28.45;;
2019;SDS011;1014;51.960;8.542;2022-12-13T12:05:26;29.48;;;26.85;;
2019;SDS011;1014;51.960;8.542;2022-12-13T12:07:55;28.52;;;26.05;;
2019;SDS011;1014;51.960;8.542;2022-12-13T12:10:26;29.40;;;26.88;;
2019;SDS011;1014;51.960;8.542;2022-12-13T12:12:56;30.63;;;27.73;;
2019;SDS011;1014;51.960;8.542;2022-12-13T12:15:25;27.90;;;25.48;;
2019;SDS011;1014;51.960;8.542;2022-12-13T12:17:54;28.13;;;25.60;;
2019;SDS011;1014;51.960;8.542;2022-12-13T12:20:23;27.70;;;25.05;;
2019;SDS011;1014;51.960;8.542;2022-12-13T12:22:56;27.05;;;24.60;;
2019;SDS011;1014;51.960;8.542;2022-12-13T12:25:28;27.50;;;25.30;;
2019;SDS011;1014;51.960;8.542;2022-12-13T12:28:02;27.88;;;25.58;;
2019;SDS011;1014;51.960;8.542;2022-12-13T12:30:32;28.00;;;25.63;;
2019;SDS011;1014;51.960;8.542;2022-12-13T12:33:07;27.25;;;24.75;;
2019;SDS011;1014;51.960;8.542;2022-12-13T12:35:43;27.70;;;24.80;;
2019;SDS011;1014;51.960;8.542;2022-12-13T12:38:25;26.20;;;24.20;;
2019;SDS011;1014;51.960;8.542;2022-12-13T12:40:58;26.80;;;24.60;;
2019;SDS011;1014;51.960;8.542;2022-12-13T12:43:30;25.35;;;23.42;;
2019;SDS011;1014;51.960;8.542;2022-12-13T12:46:02;26.83;;;24.45;;
2019;SDS011;1014;51.960;8.542;2022-12-13T12:48:40;27.33;;;25.23;;
2019;SDS011;1014;51.960;8.542;2022-12-13T12:51:16;26.90;;;24.73;;
2019;SDS011;1014;51.960;8.542;2022-12-13T12:53:46;27.65;;;25.30;;
2019;SDS011;1014;51.960;8.542;2022-12-13T12:56:18;27.17;;;24.77;;
2019;SDS011;1014;51.960;8.542;2022-12-13T12:58:53;25.80;;;23.60;;
2019;SDS011;1014;51.960;8.542;2022-12-13T13:01:30;25.70;;;23.60;;
2019;SDS011;1014;51.960;8.542;2022-12-13T13:04:02;28.45;;;25.95;;
2019;SDS011;1014;51.960;8.542;2022-12-13T13:06:32;27.85;;;25.35;;
2019;SDS011;1014;51.960;8.542;2022-12-13T13:09:01;25.60;;;23.60;;
2019;SDS011;1014;51.960;8.542;2022-12-13T13:11:29;26.38;;;24.08;;
2019;SDS011;1014;51.960;8.542;2022-12-13T13:14:01;27.45;;;24.83;;
2019;SDS011;1014;51.960;8.542;2022-12-13T13:16:31;28.02;;;25.80;;
2019;SDS011;1014;51.960;8.542;2022-12-13T13:18:59;27.20;;;24.98;;
2019;SDS011;1014;51.960;8.542;2022-12-13T13:21:30;26.73;;;24.48;;
2019;SDS011;1014;51.960;8.542;2022-12-13T13:24:05;27.15;;;24.83;;
2019;SDS011;1014;51.960;8.542;2022-12-13T13:26:33;26.52;;;24.42;;
2019;SDS011;1014;51.960;8.542;2022-12-13T13:29:24;28.38;;;25.98;;
2019;SDS011;1014;51.960;8.542;2022-12-13T13:31:55;25.85;;;23.73;;
2019;SDS011;1014;51.960;8.542;2022-12-13T13:34:24;27.80;;;25.40;;
2019;SDS011;1014;51.960;8.542;2022-12-13T13:36:51;27.30;;;24.80;;
2019;SDS011;1014;51.960;8.542;2022-12-13T13:39:35;27.00;;;24.67;;
2019;SDS011;1014;51.960;8.542;2022-12-13T13:42:15;28.60;;;26.10;;
2019;SDS011;1014;51.960;8.542;2022-12-13T13:47:35;28.10;;;25.38;;
2019;SDS011;1014;51.960;8.542;2022-12-13T13:50:12;30.02;;;27.48;;
2019;SDS011;1014;51.960;8.542;2022-12-13T13:52:50;28.92;;;26.35;;
2019;SDS011;1014;51.960;8.542;2022-12-13T13:55:27;28.63;;;26.00;;
2019;SDS011;1014;51.960;8.542;2022-12-13T13:58:11;28.88;;;26.42;;
2019;SDS011;1014;51.960;8.542;2022-12-13T14:09:15;30.73;;;27.77;;
2019;SDS011;1014;51.960;8.542;2022-12-13T14:14:45;29.70;;;26.98;;
2019;SDS011;1014;51.960;8.542;2022-12-13T14:17:22;30.45;;;27.55;;
2019;SDS011;1014;51.960;8.542;2022-12-13T14:22:43;31.38;;;27.95;;
2019;SDS011;1014;51.960;8.542;2022-12-13T14:25:36;32.45;;;29.25;;
2019;SDS011;1014;51.960;8.542;2022-12-13T14:28:08;31.42;;;28.45;;
2019;SDS011;1014;51.960;8.542;2022-12-13T14:30:39;32.88;;;29.67;;
2019;SDS011;1014;51.960;8.542;2022-12-13T14:33:10;30.75;;;28.13;;
2019;SDS011;1014;51.960;8.542;2022-12-13T14:35:48;31.98;;;28.67;;
2019;SDS011;1014;51.960;8.542;2022-12-13T14:38:19;30.90;;;28.13;;
2019;SDS011;1014;51.960;8.542;2022-12-13T14:40:49;30.77;;;27.88;;
2019;SDS011;1014;51.960;8.542;2022-12-13T14:43:21;29.35;;;26.50;;
2019;SDS011;1014;51.960;8.542;2022-12-13T14:45:50;33.15;;;29.63;;
2019;SDS011;1014;51.960;8.542;2022-12-13T14:48:18;33.05;;;29.85;;
2019;SDS011;1014;51.960;8.542;2022-12-13T14:50:45;31.00;;;28.00;;
2019;SDS011;1014;51.960;8.542;2022-12-13T14:53:17;32.08;;;29.13;;
2019;SDS011;1014;51.960;8.542;2022-12-13T14:56:02;33.00;;;29.73;;
2019;SDS011;1014;51.960;8.542;2022-12-13T14:58:29;30.80;;;27.88;;
2019;SDS011;1014;51.960;8.542;2022-12-13T15:00:56;31.00;;;28.17;;
2019;SDS011;1014;51.960;8.542;2022-12-13T15:03:24;31.70;;;28.77;;
2019;SDS011;1014;51.960;8.542;2022-12-13T15:05:52;31.23;;;28.42;;
2019;SDS011;1014;51.960;8.542;2022-12-13T15:08:20;31.08;;;28.23;;
2019;SDS011;1014;51.960;8.542;2022-12-13T15:10:48;30.77;;;27.90;;
2019;SDS011;1014;51.960;8.542;2022-12-13T15:13:22;31.38;;;28.42;;
2019;SDS011;1014;51.960;8.542;2022-12-13T15:15:51;31.25;;;28.33;;
2019;SDS011;1014;51.960;8.542;2022-12-13T15:18:19;32.50;;;29.40;;